HWL4 EHAM-KATL
Flight info
| Callsign | HWL4 |
|---|---|
| Flight time | N/A |
| Altitude | 36000 |
| Route | BERGI L60 OTBED DCT ABLUC DCT OZRAT DCT WETFI DCT ASKUP DCT REVNU DCT RESNO/M085F360 DCT 55N020W 55N030W 5430N04000W 5330N05000W DCT PELTU/N0495F360 N592A TOPPS DCT ENE DCT BAF Q448 PTW J48 MOL DCT FLASK OZZZI2 |
| Aircraft | A359/H-SDE2E3GHIJ3J4J5LM1ORWXY/LB1D1 |
Departure
| Time | 2026-05-03 20:23 |
|---|---|
| Airport | Amsterdam Airport Schiphol (EHAM) |
Arrival
| Time | N/A |
|---|---|
| Airport | Hartsfield Jackson Atlanta International Airport (KATL) |
| Time | Latitude | Longitude | Altitude | Speed | Heading |
|---|---|---|---|---|---|
| 2026-05-03 20:15 | 52.31007 | 4.77354 | 3 ft | 0 kts | 183° |
| 2026-05-03 20:15 | 52.31008 | 4.77354 | 3 ft | 1 kts | 183° |
| 2026-05-03 20:15 | 52.31017 | 4.77355 | 3 ft | 2 kts | 183° |
| 2026-05-03 20:16 | 52.31032 | 4.77354 | 3 ft | 2 kts | 164° |
| 2026-05-03 20:16 | 52.31046 | 4.77344 | 3 ft | 2 kts | 147° |
| 2026-05-03 20:16 | 52.31057 | 4.77329 | 3 ft | 2 kts | 130° |
| 2026-05-03 20:16 | 52.31065 | 4.77309 | 3 ft | 2 kts | 113° |
| 2026-05-03 20:17 | 52.31070 | 4.77286 | 3 ft | 1 kts | 96° |
| 2026-05-03 20:17 | 52.31070 | 4.77276 | 3 ft | 0 kts | 93° |
| 2026-05-03 20:18 | 52.31070 | 4.77279 | 3 ft | 1 kts | 92° |
| 2026-05-03 20:18 | 52.31069 | 4.77360 | 3 ft | 11 kts | 92° |
| 2026-05-03 20:19 | 52.31044 | 4.77499 | 3 ft | 13 kts | 110° |
| 2026-05-03 20:19 | 52.31067 | 4.77615 | 3 ft | 11 kts | 25° |
| 2026-05-03 20:19 | 52.31151 | 4.77636 | 3 ft | 13 kts | 5° |
| 2026-05-03 20:19 | 52.31249 | 4.77645 | 3 ft | 15 kts | 3° |
| 2026-05-03 20:20 | 52.31360 | 4.77656 | 3 ft | 16 kts | 357° |
| 2026-05-03 20:20 | 52.31475 | 4.77611 | 3 ft | 17 kts | 331° |
| 2026-05-03 20:20 | 52.31549 | 4.77518 | 3 ft | 13 kts | 340° |
| 2026-05-03 20:20 | 52.31625 | 4.77520 | 3 ft | 10 kts | 7° |
| 2026-05-03 20:21 | 52.31690 | 4.77592 | 3 ft | 12 kts | 50° |
| 2026-05-03 20:21 | 52.31761 | 4.77684 | 3 ft | 14 kts | 18° |
| 2026-05-03 20:21 | 52.31865 | 4.77701 | 3 ft | 15 kts | 4° |
| 2026-05-03 20:21 | 52.31980 | 4.77722 | 3 ft | 17 kts | 17° |
| 2026-05-03 20:22 | 52.32077 | 4.77834 | 3 ft | 16 kts | 40° |
| 2026-05-03 20:22 | 52.32113 | 4.77989 | 3 ft | 9 kts | 122° |
| 2026-05-03 20:22 | 52.32069 | 4.78015 | 3 ft | 2 kts | 186° |
| 2026-05-03 20:22 | 52.31869 | 4.77993 | 3 ft | 64 kts | 184° |
| 2026-05-03 20:23 | 52.31188 | 4.77932 | 4 ft | 129 kts | 184° |
| 2026-05-03 20:23 | 52.30106 | 4.77829 | 99 ft | 174 kts | 184° |
| 2026-05-03 20:23 | 52.28924 | 4.77793 | 808 ft | 174 kts | 177° |
| 2026-05-03 20:23 | 52.27771 | 4.78166 | 1632 ft | 168 kts | 166° |
| 2026-05-03 20:24 | 52.26671 | 4.78676 | 2136 ft | 168 kts | 167° |
| 2026-05-03 20:24 | 52.25522 | 4.79180 | 2413 ft | 179 kts | 168° |
| 2026-05-03 20:24 | 52.24263 | 4.79724 | 2707 ft | 192 kts | 168° |
| 2026-05-03 20:24 | 52.22924 | 4.80274 | 3004 ft | 205 kts | 173° |
| 2026-05-03 20:25 | 52.21513 | 4.80048 | 3283 ft | 213 kts | 206° |
| 2026-05-03 20:25 | 52.20313 | 4.78575 | 3648 ft | 222 kts | 235° |
| 2026-05-03 20:25 | 52.19700 | 4.76259 | 4103 ft | 231 kts | 264° |
| 2026-05-03 20:25 | 52.19863 | 4.73609 | 4547 ft | 243 kts | 283° |
| 2026-05-03 20:26 | 52.20271 | 4.70867 | 4976 ft | 257 kts | 282° |
| 2026-05-03 20:26 | 52.20667 | 4.68012 | 5631 ft | 262 kts | 281° |
| 2026-05-03 20:26 | 52.21062 | 4.65116 | 6347 ft | 263 kts | 281° |
| 2026-05-03 20:26 | 52.21452 | 4.62231 | 7048 ft | 265 kts | 281° |
| 2026-05-03 20:27 | 52.21847 | 4.59291 | 7715 ft | 268 kts | 281° |
| 2026-05-03 20:27 | 52.22409 | 4.56387 | 8367 ft | 275 kts | 298° |
| 2026-05-03 20:27 | 52.23691 | 4.54066 | 9052 ft | 282 kts | 322° |
| 2026-05-03 20:27 | 52.25354 | 4.52388 | 9719 ft | 286 kts | 326° |
| 2026-05-03 20:28 | 52.27077 | 4.50723 | 10229 ft | 293 kts | 326° |
| 2026-05-03 20:28 | 52.28871 | 4.48971 | 10532 ft | 308 kts | 326° |
| 2026-05-03 20:28 | 52.30724 | 4.47139 | 10852 ft | 322 kts | 326° |
| 2026-05-03 20:28 | 52.32695 | 4.45179 | 11142 ft | 337 kts | 326° |
| 2026-05-03 20:29 | 52.34762 | 4.43306 | 11373 ft | 353 kts | 334° |
| 2026-05-03 20:29 | 52.37174 | 4.41988 | 11704 ft | 371 kts | 345° |
| 2026-05-03 20:29 | 52.39755 | 4.41366 | 11978 ft | 386 kts | 352° |
| 2026-05-03 20:29 | 52.42506 | 4.40938 | 12271 ft | 399 kts | 353° |
| 2026-05-03 20:30 | 52.45279 | 4.40541 | 12738 ft | 405 kts | 353° |
| 2026-05-03 20:30 | 52.48060 | 4.40135 | 13255 ft | 408 kts | 353° |
| 2026-05-03 20:30 | 52.50906 | 4.39706 | 13825 ft | 410 kts | 353° |
| 2026-05-03 20:30 | 52.53749 | 4.39268 | 14364 ft | 413 kts | 352° |
| 2026-05-03 20:31 | 52.56622 | 4.38817 | 14896 ft | 416 kts | 352° |
| 2026-05-03 20:31 | 52.59497 | 4.38361 | 15397 ft | 419 kts | 352° |
| 2026-05-03 20:31 | 52.62365 | 4.37906 | 15911 ft | 421 kts | 352° |
| 2026-05-03 20:31 | 52.65315 | 4.37435 | 16413 ft | 424 kts | 352° |
| 2026-05-03 20:32 | 52.68241 | 4.36968 | 16900 ft | 427 kts | 352° |
| 2026-05-03 20:32 | 52.71146 | 4.36180 | 17304 ft | 426 kts | 339° |
| 2026-05-03 20:32 | 52.73739 | 4.33905 | 17761 ft | 419 kts | 317° |
| 2026-05-03 20:32 | 52.75681 | 4.30478 | 18252 ft | 412 kts | 300° |
| 2026-05-03 20:33 | 52.76883 | 4.26241 | 18674 ft | 409 kts | 285° |
| 2026-05-03 20:33 | 52.77750 | 4.21777 | 19139 ft | 411 kts | 285° |
| 2026-05-03 20:33 | 52.78628 | 4.17293 | 19500 ft | 416 kts | 285° |
| 2026-05-03 20:33 | 52.79530 | 4.12727 | 19928 ft | 419 kts | 285° |
| 2026-05-03 20:34 | 52.80441 | 4.08135 | 20360 ft | 422 kts | 285° |
| 2026-05-03 20:34 | 52.81344 | 4.03595 | 20783 ft | 424 kts | 285° |
| 2026-05-03 20:34 | 52.82275 | 3.98918 | 21200 ft | 426 kts | 285° |
| 2026-05-03 20:34 | 52.83199 | 3.94272 | 21605 ft | 429 kts | 285° |
| 2026-05-03 20:35 | 52.84129 | 3.89587 | 21994 ft | 431 kts | 285° |
| 2026-05-03 20:35 | 52.85056 | 3.84905 | 22379 ft | 434 kts | 285° |
| 2026-05-03 20:35 | 52.85998 | 3.80146 | 22750 ft | 436 kts | 285° |
| 2026-05-03 20:35 | 52.86936 | 3.75386 | 23091 ft | 439 kts | 285° |
| 2026-05-03 20:36 | 52.87874 | 3.70621 | 23425 ft | 442 kts | 285° |
| 2026-05-03 20:36 | 52.88831 | 3.65747 | 23773 ft | 444 kts | 285° |
| 2026-05-03 20:36 | 52.89774 | 3.60928 | 24110 ft | 446 kts | 285° |
| 2026-05-03 20:36 | 52.90731 | 3.56026 | 24417 ft | 449 kts | 285° |
| 2026-05-03 20:37 | 52.91686 | 3.51125 | 24691 ft | 452 kts | 285° |
| 2026-05-03 20:37 | 52.92642 | 3.46204 | 24970 ft | 454 kts | 285° |
| 2026-05-03 20:37 | 52.93612 | 3.41203 | 25235 ft | 457 kts | 285° |
| 2026-05-03 20:37 | 52.94588 | 3.36171 | 25521 ft | 459 kts | 285° |
| 2026-05-03 20:38 | 52.95548 | 3.31198 | 25805 ft | 461 kts | 284° |
| 2026-05-03 20:38 | 52.96523 | 3.26114 | 26056 ft | 463 kts | 284° |
| 2026-05-03 20:38 | 52.97497 | 3.21027 | 26282 ft | 466 kts | 284° |
| 2026-05-03 20:38 | 52.98482 | 3.15860 | 26532 ft | 468 kts | 284° |
| 2026-05-03 20:39 | 52.99419 | 3.10927 | 26765 ft | 469 kts | 284° |
| 2026-05-03 20:39 | 53.00397 | 3.05764 | 27011 ft | 471 kts | 284° |
| 2026-05-03 20:39 | 53.01370 | 3.00622 | 27231 ft | 473 kts | 284° |
| 2026-05-03 20:39 | 53.02362 | 2.95373 | 27427 ft | 475 kts | 284° |
| 2026-05-03 20:40 | 53.03345 | 2.90167 | 27633 ft | 477 kts | 284° |
| 2026-05-03 20:40 | 53.04327 | 2.84953 | 27898 ft | 477 kts | 284° |
| 2026-05-03 20:40 | 53.05311 | 2.79728 | 28250 ft | 476 kts | 284° |
| 2026-05-03 20:40 | 53.06291 | 2.74502 | 28586 ft | 475 kts | 284° |
| 2026-05-03 20:41 | 53.07272 | 2.69262 | 28890 ft | 474 kts | 284° |
| 2026-05-03 20:41 | 53.08244 | 2.64045 | 29198 ft | 473 kts | 284° |
| 2026-05-03 20:41 | 53.09214 | 2.58819 | 29520 ft | 472 kts | 284° |
| 2026-05-03 20:41 | 53.10098 | 2.53639 | 29845 ft | 469 kts | 281° |
| 2026-05-03 20:42 | 53.10837 | 2.48350 | 30140 ft | 467 kts | 278° |
| 2026-05-03 20:42 | 53.11407 | 2.43089 | 30398 ft | 465 kts | 276° |
| 2026-05-03 20:42 | 53.11869 | 2.37777 | 30658 ft | 464 kts | 275° |
| 2026-05-03 20:42 | 53.12307 | 2.32497 | 30887 ft | 463 kts | 274° |
| 2026-05-03 20:43 | 53.12736 | 2.27227 | 31108 ft | 463 kts | 274° |
| 2026-05-03 20:43 | 53.13163 | 2.21935 | 31307 ft | 463 kts | 274° |
| 2026-05-03 20:43 | 53.13589 | 2.16628 | 31498 ft | 463 kts | 274° |
| 2026-05-03 20:43 | 53.14014 | 2.11300 | 31692 ft | 463 kts | 274° |
| 2026-05-03 20:44 | 53.14434 | 2.06026 | 31896 ft | 462 kts | 274° |
| 2026-05-03 20:44 | 53.14803 | 2.01364 | 32067 ft | 462 kts | 274° |
| 2026-05-03 20:44 | 53.15219 | 1.96071 | 32250 ft | 462 kts | 274° |
| 2026-05-03 20:44 | 53.15636 | 1.90752 | 32423 ft | 462 kts | 274° |
| 2026-05-03 20:45 | 53.16048 | 1.85454 | 32608 ft | 461 kts | 274° |
| 2026-05-03 20:45 | 53.16456 | 1.80199 | 32811 ft | 460 kts | 274° |
| 2026-05-03 20:45 | 53.16859 | 1.74952 | 32984 ft | 460 kts | 274° |
| 2026-05-03 20:45 | 53.17264 | 1.69659 | 33141 ft | 460 kts | 274° |
| 2026-05-03 20:46 | 53.17659 | 1.64463 | 33298 ft | 459 kts | 274° |
| 2026-05-03 20:46 | 53.18060 | 1.59140 | 33453 ft | 459 kts | 274° |
| 2026-05-03 20:46 | 53.18451 | 1.53942 | 33596 ft | 459 kts | 274° |
| 2026-05-03 20:46 | 53.18846 | 1.48647 | 33750 ft | 459 kts | 274° |
| 2026-05-03 20:47 | 53.19236 | 1.43404 | 33877 ft | 459 kts | 274° |
| 2026-05-03 20:47 | 53.19623 | 1.38169 | 33994 ft | 459 kts | 274° |
| 2026-05-03 20:47 | 53.20012 | 1.32857 | 34110 ft | 459 kts | 273° |
| 2026-05-03 20:47 | 53.20394 | 1.27617 | 34217 ft | 460 kts | 273° |
| 2026-05-03 20:48 | 53.20777 | 1.22304 | 34313 ft | 460 kts | 273° |
| 2026-05-03 20:48 | 53.21535 | 1.11744 | 34483 ft | 461 kts | 273° |
| 2026-05-03 20:49 | 53.22286 | 1.01145 | 34622 ft | 463 kts | 273° |
| 2026-05-03 20:49 | 53.22981 | 0.91211 | 34765 ft | 464 kts | 273° |
| 2026-05-03 20:50 | 53.23703 | 0.80763 | 34872 ft | 465 kts | 273° |
| 2026-05-03 20:50 | 53.24437 | 0.69987 | 34977 ft | 466 kts | 273° |
| 2026-05-03 20:51 | 53.25137 | 0.59593 | 35093 ft | 467 kts | 274° |
| 2026-05-03 20:51 | 53.25852 | 0.48829 | 35238 ft | 467 kts | 274° |
| 2026-05-03 20:52 | 53.26556 | 0.38083 | 35545 ft | 469 kts | 274° |
| 2026-05-03 20:52 | 53.27255 | 0.27288 | 35656 ft | 469 kts | 273° |
| 2026-05-03 20:53 | 53.27943 | 0.16454 | 35784 ft | 470 kts | 273° |
| 2026-05-03 20:53 | 53.28625 | 0.06065 | 35877 ft | 472 kts | 275° |
| 2026-05-03 20:54 | 53.29803 | -0.04739 | 35883 ft | 475 kts | 279° |
| 2026-05-03 20:54 | 53.31807 | -0.19961 | 35885 ft | 474 kts | 279° |
| 2026-05-03 20:55 | 53.33215 | -0.30724 | 35886 ft | 474 kts | 280° |
| 2026-05-03 20:55 | 53.34566 | -0.41153 | 35888 ft | 475 kts | 280° |
| 2026-05-03 20:56 | 53.35950 | -0.51922 | 35888 ft | 475 kts | 280° |
| 2026-05-03 20:56 | 53.37326 | -0.62724 | 35897 ft | 475 kts | 280° |
| 2026-05-03 20:57 | 53.38692 | -0.73545 | 35896 ft | 475 kts | 279° |
| 2026-05-03 20:57 | 53.40003 | -0.84013 | 35899 ft | 476 kts | 279° |
| 2026-05-03 20:58 | 53.41330 | -0.94676 | 35906 ft | 476 kts | 279° |